createdAt,value
2017-03-28T00:00:57.099Z,7.52
2017-03-28T00:01:58.518Z,7.35
2017-03-28T00:02:59.947Z,7.32
2017-03-28T00:04:01.366Z,7.27
2017-03-28T00:05:02.796Z,7.07
2017-03-28T00:06:04.220Z,7.08
2017-03-28T00:07:05.645Z,7.27
2017-03-28T00:08:07.067Z,7.29
2017-03-28T00:09:08.492Z,7.40
2017-03-28T00:10:09.906Z,7.37
2017-03-28T00:11:11.332Z,7.29
2017-03-28T00:12:12.761Z,7.22
2017-03-28T00:13:14.185Z,6.77
2017-03-28T00:14:15.604Z,6.91
2017-03-28T00:15:17.026Z,6.80
2017-03-28T00:16:18.458Z,6.89
2017-03-28T00:17:19.887Z,6.73
2017-03-28T00:18:21.312Z,6.62
2017-03-28T00:19:22.745Z,6.69
2017-03-28T00:20:24.173Z,7.05
2017-03-28T00:21:25.589Z,6.86
2017-03-28T00:22:27.008Z,6.77
2017-03-28T00:23:28.426Z,7.05
2017-03-28T00:24:29.853Z,7.04
2017-03-28T00:25:31.278Z,7.08
2017-03-28T00:26:32.698Z,7.01
2017-03-28T00:27:34.124Z,6.81
2017-03-28T00:28:35.544Z,6.79
2017-03-28T00:29:36.973Z,6.81
2017-03-28T00:30:38.392Z,6.54
2017-03-28T00:31:39.811Z,6.79
2017-03-28T00:32:41.237Z,6.47
2017-03-28T00:33:42.668Z,6.41
2017-03-28T00:34:44.095Z,6.29
2017-03-28T00:35:45.522Z,6.40
2017-03-28T00:36:46.951Z,6.61
2017-03-28T00:37:48.366Z,6.58
2017-03-28T00:38:49.832Z,6.66
2017-03-28T00:39:51.359Z,6.44
2017-03-28T00:40:52.807Z,6.46
2017-03-28T00:41:54.247Z,6.40
2017-03-28T00:42:55.678Z,6.66
2017-03-28T00:43:57.097Z,6.54
2017-03-28T00:44:59.303Z,6.51
2017-03-28T00:46:00.714Z,6.63
2017-03-28T00:47:02.140Z,6.68
2017-03-28T00:48:03.568Z,6.40
2017-03-28T00:49:04.988Z,6.54
2017-03-28T00:50:06.416Z,6.41
2017-03-28T00:51:08.518Z,6.35
2017-03-28T00:52:09.947Z,6.30
2017-03-28T00:53:11.371Z,6.61
2017-03-28T00:54:12.796Z,6.58
2017-03-28T00:55:14.217Z,6.56
2017-03-28T00:56:15.641Z,6.47
2017-03-28T00:57:17.060Z,6.58
2017-03-28T00:58:18.483Z,6.35
2017-03-28T00:59:19.907Z,6.44
2017-03-28T01:00:21.333Z,6.53
2017-03-28T01:01:22.754Z,6.22
2017-03-28T01:02:24.178Z,6.33
2017-03-28T01:03:25.608Z,6.19
2017-03-28T01:04:27.025Z,6.29
2017-03-28T01:05:28.448Z,6.28
2017-03-28T01:06:29.876Z,6.38
2017-03-28T01:07:31.346Z,6.40
2017-03-28T01:08:32.768Z,6.35
2017-03-28T01:09:34.197Z,6.22
2017-03-28T01:10:36.458Z,6.22
2017-03-28T01:11:37.884Z,6.28
2017-03-28T01:12:39.305Z,6.35
2017-03-28T01:13:40.726Z,6.32
2017-03-28T01:14:42.155Z,6.07
2017-03-28T01:15:43.583Z,6.25
2017-03-28T01:16:45.005Z,6.35
2017-03-28T01:17:46.434Z,6.46
2017-03-28T01:18:48.628Z,6.33
2017-03-28T01:19:50.045Z,6.29
2017-03-28T01:20:51.468Z,6.33
2017-03-28T01:21:52.893Z,6.36
2017-03-28T01:22:54.316Z,6.50
2017-03-28T01:23:55.751Z,6.58
2017-03-28T01:24:57.181Z,6.30
2017-03-28T01:25:58.602Z,6.53
2017-03-28T01:27:00.031Z,6.36
2017-03-28T01:28:01.465Z,6.19
2017-03-28T01:29:02.903Z,6.30
2017-03-28T01:30:04.337Z,6.25
2017-03-28T01:31:05.758Z,6.32
2017-03-28T01:32:07.196Z,6.32
2017-03-28T01:33:08.634Z,6.14
2017-03-28T01:34:10.041Z,6.33
2017-03-28T01:35:11.471Z,6.16
2017-03-28T01:36:12.895Z,6.22
2017-03-28T01:37:14.315Z,6.32
2017-03-28T01:38:15.741Z,6.32
2017-03-28T01:39:17.168Z,6.19
2017-03-28T01:40:18.598Z,6.26
2017-03-28T01:41:20.017Z,6.07
2017-03-28T01:42:21.432Z,6.00
2017-03-28T01:43:22.883Z,6.18
2017-03-28T01:44:24.301Z,6.35
2017-03-28T01:45:25.734Z,6.30
2017-03-28T01:46:27.159Z,6.16
2017-03-28T01:47:28.583Z,6.29
2017-03-28T01:48:30.009Z,6.28
2017-03-28T01:49:31.449Z,6.38
2017-03-28T01:50:32.865Z,6.26
2017-03-28T01:51:34.291Z,6.10
2017-03-28T01:52:35.711Z,6.18
2017-03-28T01:53:37.149Z,6.03
2017-03-28T01:54:38.570Z,6.10
2017-03-28T01:55:39.991Z,6.07
2017-03-28T01:56:41.412Z,6.26
2017-03-28T01:57:42.832Z,6.35
2017-03-28T01:58:44.253Z,6.36
2017-03-28T01:59:45.677Z,6.41
2017-03-28T02:00:47.091Z,6.44
2017-03-28T02:01:48.515Z,6.29
2017-03-28T02:02:49.940Z,6.36
2017-03-28T02:03:51.367Z,6.21
2017-03-28T02:04:52.800Z,6.33
2017-03-28T02:05:54.233Z,6.21
2017-03-28T02:06:55.653Z,6.04
2017-03-28T02:07:57.074Z,6.30
2017-03-28T02:08:58.510Z,6.32
2017-03-28T02:09:59.934Z,6.32
2017-03-28T02:11:01.358Z,6.40
2017-03-28T02:12:02.776Z,6.40
2017-03-28T02:13:04.196Z,6.33
2017-03-28T02:14:05.617Z,6.07
2017-03-28T02:15:07.050Z,6.01
2017-03-28T02:16:08.468Z,6.03
2017-03-28T02:17:09.906Z,6.18
2017-03-28T02:18:11.331Z,6.04
2017-03-28T02:19:12.755Z,6.07
2017-03-28T02:20:14.178Z,6.32
2017-03-28T02:21:15.598Z,6.43
2017-03-28T02:22:17.025Z,6.33
2017-03-28T02:23:18.452Z,6.13
2017-03-28T02:24:19.869Z,6.03
2017-03-28T02:25:21.299Z,6.07
2017-03-28T02:26:22.714Z,6.00
2017-03-28T02:27:24.138Z,6.03
2017-03-28T02:28:25.556Z,6.22
2017-03-28T02:29:26.982Z,6.28
2017-03-28T02:30:28.405Z,6.38
2017-03-28T02:31:29.828Z,6.21
2017-03-28T02:32:31.251Z,6.38
2017-03-28T02:33:32.673Z,6.54
2017-03-28T02:34:34.094Z,6.28
2017-03-28T02:35:35.517Z,6.01
2017-03-28T02:36:36.954Z,6.06
2017-03-28T02:37:38.385Z,6.16
2017-03-28T02:38:39.826Z,6.07
2017-03-28T02:39:41.248Z,6.25
2017-03-28T02:40:42.680Z,6.09
2017-03-28T02:41:44.105Z,6.28
2017-03-28T02:42:45.537Z,6.06
2017-03-28T02:43:46.973Z,5.93
2017-03-28T02:44:48.400Z,6.09
2017-03-28T02:45:49.819Z,6.19
2017-03-28T02:46:51.246Z,6.30
2017-03-28T02:47:52.669Z,6.10
2017-03-28T02:48:54.094Z,6.07
2017-03-28T02:49:55.522Z,6.38
2017-03-28T02:50:56.949Z,6.33
2017-03-28T02:51:58.375Z,6.47
2017-03-28T02:52:59.790Z,6.63
2017-03-28T02:54:01.214Z,6.51
2017-03-28T02:55:02.637Z,6.54
2017-03-28T02:56:04.060Z,6.56
2017-03-28T02:57:05.482Z,6.40
2017-03-28T02:58:06.912Z,6.48
2017-03-28T02:59:08.330Z,6.54
2017-03-28T03:00:09.764Z,6.53
2017-03-28T03:01:11.195Z,6.54
2017-03-28T03:02:12.622Z,6.56
2017-03-28T03:03:14.041Z,6.62
2017-03-28T03:04:15.469Z,6.72
2017-03-28T03:05:16.894Z,6.80
2017-03-28T03:06:18.319Z,6.91
2017-03-28T03:07:19.736Z,6.80
2017-03-28T03:08:21.178Z,6.53
2017-03-28T03:09:22.623Z,6.63
2017-03-28T03:10:24.055Z,6.65
2017-03-28T03:11:25.474Z,6.61
2017-03-28T03:12:26.897Z,6.46
2017-03-28T03:13:28.319Z,6.40
2017-03-28T03:14:29.741Z,6.56
2017-03-28T03:15:31.172Z,6.35
2017-03-28T03:16:32.601Z,6.38
2017-03-28T03:17:34.021Z,6.30
2017-03-28T03:18:35.438Z,6.29
2017-03-28T03:19:36.865Z,6.32
2017-03-28T03:20:38.304Z,5.85
2017-03-28T03:21:39.731Z,6.25
2017-03-28T03:22:41.163Z,6.10
2017-03-28T03:23:42.580Z,6.59
2017-03-28T03:24:44.003Z,6.51
2017-03-28T03:25:45.426Z,6.50
2017-03-28T03:26:46.856Z,6.65
2017-03-28T03:27:48.280Z,6.47
2017-03-28T03:28:49.711Z,6.56
2017-03-28T03:29:51.143Z,6.43
2017-03-28T03:30:52.593Z,6.46
2017-03-28T03:31:54.032Z,6.56
2017-03-28T03:32:55.463Z,6.68
2017-03-28T03:33:56.885Z,6.51
2017-03-28T03:34:59.192Z,6.56
2017-03-28T03:36:00.614Z,6.54
2017-03-28T03:37:02.038Z,6.36
2017-03-28T03:38:03.466Z,6.53
2017-03-28T03:39:04.884Z,6.65
2017-03-28T03:40:06.310Z,6.46
2017-03-28T03:41:07.732Z,6.66
2017-03-28T03:42:09.149Z,6.58
2017-03-28T03:43:10.572Z,6.50
2017-03-28T03:44:11.991Z,6.41
2017-03-28T03:45:13.417Z,6.41
2017-03-28T03:46:14.838Z,6.40
2017-03-28T03:47:16.261Z,6.22
2017-03-28T03:48:17.688Z,6.04
2017-03-28T03:49:19.127Z,6.38
2017-03-28T03:50:20.548Z,6.46
2017-03-28T03:51:21.976Z,6.61
2017-03-28T03:52:23.401Z,6.69
2017-03-28T03:53:24.826Z,6.62
2017-03-28T03:54:26.252Z,6.26
2017-03-28T03:55:27.682Z,6.40
2017-03-28T03:56:29.107Z,6.46
2017-03-28T03:57:30.532Z,6.36
2017-03-28T03:58:31.952Z,6.25
2017-03-28T03:59:33.379Z,6.46
2017-03-28T04:00:34.799Z,6.54
2017-03-28T04:01:36.232Z,6.56
2017-03-28T04:02:37.654Z,6.33
2017-03-28T04:03:39.081Z,6.30
2017-03-28T04:04:40.517Z,6.13
2017-03-28T04:05:41.934Z,6.07
2017-03-28T04:06:43.356Z,6.18
2017-03-28T04:07:44.790Z,6.09
2017-03-28T04:08:46.212Z,6.10
2017-03-28T04:09:47.691Z,6.11
2017-03-28T04:10:49.120Z,5.85
2017-03-28T04:11:50.545Z,5.82
2017-03-28T04:12:51.972Z,5.78
2017-03-28T04:13:53.389Z,6.00
2017-03-28T04:14:54.808Z,6.06
2017-03-28T04:15:56.245Z,6.04
2017-03-28T04:16:57.669Z,6.01
2017-03-28T04:17:59.093Z,6.13
2017-03-28T04:19:00.512Z,6.14
2017-03-28T04:20:01.934Z,6.29
2017-03-28T04:21:04.311Z,6.21
2017-03-28T04:22:05.726Z,6.01
2017-03-28T04:23:07.183Z,6.14
2017-03-28T04:24:08.642Z,6.11
2017-03-28T04:25:10.059Z,6.10
2017-03-28T04:26:11.484Z,6.18
2017-03-28T04:27:12.927Z,6.26
2017-03-28T04:28:14.348Z,6.13
2017-03-28T04:29:15.775Z,6.07
2017-03-28T04:30:17.234Z,6.00
2017-03-28T04:31:18.663Z,5.98
2017-03-28T04:32:20.086Z,6.10
2017-03-28T04:33:21.510Z,6.07
2017-03-28T04:34:23.039Z,6.10
2017-03-28T04:35:24.462Z,6.13
2017-03-28T04:36:25.884Z,6.06
2017-03-28T04:37:27.317Z,6.10
2017-03-28T04:38:29.281Z,6.04
2017-03-28T04:39:30.711Z,6.06
2017-03-28T04:40:32.136Z,6.03
2017-03-28T04:41:33.570Z,6.11
2017-03-28T04:42:34.977Z,6.44
2017-03-28T04:43:36.411Z,6.40
2017-03-28T04:44:37.827Z,6.40
2017-03-28T04:45:39.252Z,6.38
2017-03-28T04:46:40.673Z,6.33
2017-03-28T04:47:42.099Z,6.10
2017-03-28T04:48:43.526Z,5.96
2017-03-28T04:49:44.946Z,5.83
2017-03-28T04:50:46.377Z,6.01
2017-03-28T04:51:47.797Z,5.96
2017-03-28T04:52:49.217Z,5.86
2017-03-28T04:53:50.639Z,5.82
2017-03-28T04:54:52.058Z,5.66
2017-03-28T04:55:53.481Z,5.85
2017-03-28T04:56:54.905Z,5.82
2017-03-28T04:57:56.324Z,6.04
2017-03-28T04:58:58.475Z,5.95
2017-03-28T04:59:59.889Z,6.04
2017-03-28T05:01:01.319Z,6.06
2017-03-28T05:02:02.745Z,5.96
2017-03-28T05:03:04.170Z,5.85
2017-03-28T05:04:05.594Z,5.81
2017-03-28T05:05:07.019Z,6.00
2017-03-28T05:06:08.435Z,6.03
2017-03-28T05:07:09.858Z,6.03
2017-03-28T05:08:11.278Z,6.03
2017-03-28T05:09:12.704Z,5.98
2017-03-28T05:10:14.137Z,5.96
2017-03-28T05:11:15.574Z,6.04
2017-03-28T05:12:16.996Z,5.83
2017-03-28T05:13:18.416Z,6.01
2017-03-28T05:14:19.838Z,6.03
2017-03-28T05:15:21.274Z,6.03
2017-03-28T05:16:22.687Z,5.93
2017-03-28T05:17:24.112Z,5.77
2017-03-28T05:18:25.537Z,5.95
2017-03-28T05:19:26.961Z,6.06
2017-03-28T05:20:28.387Z,6.11
2017-03-28T05:21:29.815Z,6.13
2017-03-28T05:22:31.243Z,6.04
2017-03-28T05:23:32.683Z,6.26
2017-03-28T05:24:34.106Z,6.11
2017-03-28T05:25:35.530Z,5.89
2017-03-28T05:26:36.958Z,6.03
2017-03-28T05:27:38.380Z,6.04
2017-03-28T05:28:40.501Z,6.03
2017-03-28T05:29:41.930Z,6.06
2017-03-28T05:30:43.359Z,6.04
2017-03-28T05:31:44.836Z,6.06
2017-03-28T05:32:46.259Z,6.36
2017-03-28T05:33:47.706Z,6.48
2017-03-28T05:34:49.137Z,6.36
2017-03-28T05:35:50.638Z,6.14
2017-03-28T05:36:52.071Z,6.19
2017-03-28T05:37:53.498Z,6.36
2017-03-28T05:38:54.967Z,6.44
2017-03-28T05:39:56.396Z,6.41
2017-03-28T05:40:57.827Z,6.41
2017-03-28T05:41:59.255Z,6.51
2017-03-28T05:43:00.691Z,6.50
2017-03-28T05:44:02.127Z,6.25
2017-03-28T05:45:03.548Z,6.32
2017-03-28T05:46:05.017Z,6.43
2017-03-28T05:47:06.442Z,6.53
2017-03-28T05:48:07.861Z,6.58
2017-03-28T05:49:09.299Z,6.61
2017-03-28T05:50:10.724Z,6.62
2017-03-28T05:51:12.160Z,6.83
2017-03-28T05:52:13.578Z,6.99
2017-03-28T05:53:15.000Z,7.02
2017-03-28T05:54:16.425Z,7.01
2017-03-28T05:55:17.858Z,6.79
2017-03-28T05:56:19.283Z,6.76
2017-03-28T05:57:20.710Z,6.68
2017-03-28T05:58:22.145Z,6.66
2017-03-28T05:59:23.566Z,6.69
2017-03-28T06:00:24.990Z,6.73
2017-03-28T06:01:26.426Z,6.80
2017-03-28T06:02:27.848Z,6.90
2017-03-28T06:03:29.273Z,7.16
2017-03-28T06:04:30.699Z,7.26
2017-03-28T06:05:32.120Z,7.27
2017-03-28T06:06:33.551Z,7.44
2017-03-28T06:07:34.989Z,7.49
2017-03-28T06:08:36.413Z,7.49
2017-03-28T06:09:37.840Z,7.44
2017-03-28T06:10:39.262Z,7.53
2017-03-28T06:11:40.687Z,7.66
2017-03-28T06:12:43.077Z,7.63
2017-03-28T06:13:44.513Z,7.55
2017-03-28T06:14:45.943Z,7.74
2017-03-28T06:15:47.374Z,7.71
2017-03-28T06:16:48.791Z,7.79
2017-03-28T06:17:50.220Z,7.92
2017-03-28T06:18:51.647Z,7.99
2017-03-28T06:19:53.072Z,8.10
2017-03-28T06:20:54.501Z,8.20
2017-03-28T06:21:55.929Z,8.36
2017-03-28T06:22:57.356Z,8.48
2017-03-28T06:23:58.780Z,8.36
2017-03-28T06:25:00.202Z,8.33
2017-03-28T06:26:01.631Z,8.45
2017-03-28T06:27:03.049Z,8.69
2017-03-28T06:28:04.481Z,8.68
2017-03-28T06:29:05.912Z,8.81
2017-03-28T06:30:07.348Z,8.79
2017-03-28T06:31:08.781Z,8.83
2017-03-28T06:32:10.207Z,8.84
2017-03-28T06:33:11.639Z,8.83
2017-03-28T06:34:13.070Z,8.99
2017-03-28T06:35:14.494Z,9.05
2017-03-28T06:36:15.918Z,9.21
2017-03-28T06:37:17.356Z,9.20
2017-03-28T06:38:18.788Z,9.12
2017-03-28T06:39:20.215Z,9.06
2017-03-28T06:40:21.640Z,9.30
2017-03-28T06:41:23.112Z,9.46
2017-03-28T06:42:24.541Z,9.57
2017-03-28T06:43:25.967Z,9.66
2017-03-28T06:44:27.442Z,9.71
2017-03-28T06:45:28.890Z,9.82
2017-03-28T06:46:30.330Z,9.97
2017-03-28T06:47:31.759Z,9.96
2017-03-28T06:48:33.201Z,10.12
2017-03-28T06:49:34.661Z,10.24
2017-03-28T06:50:36.100Z,10.24
2017-03-28T06:51:37.548Z,10.26
2017-03-28T06:52:38.960Z,10.36
2017-03-28T06:53:40.380Z,10.51
2017-03-28T06:54:41.812Z,10.60
2017-03-28T06:55:43.259Z,10.62
2017-03-28T06:56:44.689Z,10.73
2017-03-28T06:57:46.119Z,10.92
2017-03-28T06:58:47.556Z,11.06
2017-03-28T06:59:48.991Z,10.96
2017-03-28T07:00:50.428Z,10.80
2017-03-28T07:01:51.866Z,10.80
2017-03-28T07:02:53.307Z,10.98
2017-03-28T07:03:54.728Z,11.07
2017-03-28T07:04:56.155Z,11.24
2017-03-28T07:05:57.579Z,11.34
2017-03-28T07:06:59.015Z,11.32
2017-03-28T07:08:00.443Z,11.54
2017-03-28T07:09:01.872Z,11.61
2017-03-28T07:10:03.300Z,11.77
2017-03-28T07:11:04.736Z,11.93
2017-03-28T07:12:06.161Z,11.86
2017-03-28T07:13:07.595Z,11.85
2017-03-28T07:14:09.021Z,11.93
2017-03-28T07:15:10.456Z,11.86
2017-03-28T07:16:11.887Z,12.04
2017-03-28T07:17:13.318Z,12.05
2017-03-28T07:18:14.745Z,12.08
2017-03-28T07:19:16.180Z,12.21
2017-03-28T07:20:17.608Z,12.20
2017-03-28T07:21:19.040Z,12.30
2017-03-28T07:22:20.475Z,12.46
2017-03-28T07:23:21.914Z,12.49
2017-03-28T07:24:23.342Z,12.71
2017-03-28T07:25:24.774Z,12.63
2017-03-28T07:26:26.214Z,12.56
2017-03-28T07:27:27.644Z,12.69
2017-03-28T07:28:29.089Z,12.75
2017-03-28T07:29:30.515Z,12.82
2017-03-28T07:30:31.975Z,12.93
2017-03-28T07:31:33.419Z,12.75
2017-03-28T07:32:34.848Z,12.92
2017-03-28T07:33:36.283Z,12.81
2017-03-28T07:34:37.714Z,12.93
2017-03-28T07:35:39.145Z,12.96
2017-03-28T07:36:40.575Z,12.97
2017-03-28T07:37:42.011Z,13.17
2017-03-28T07:38:43.445Z,13.30
2017-03-28T07:39:44.872Z,13.40
2017-03-28T07:40:46.303Z,13.43
2017-03-28T07:41:47.731Z,13.49
2017-03-28T07:42:49.687Z,13.43
2017-03-28T07:43:51.123Z,13.40
2017-03-28T07:44:52.557Z,13.38
2017-03-28T07:45:53.985Z,13.73
2017-03-28T07:46:55.457Z,13.46
2017-03-28T07:47:56.967Z,13.69
2017-03-28T07:48:58.395Z,13.73
2017-03-28T07:49:59.835Z,14.01
2017-03-28T07:51:01.266Z,13.99
2017-03-28T07:52:02.703Z,14.01
2017-03-28T07:53:04.139Z,13.95
2017-03-28T07:54:05.569Z,13.99
2017-03-28T07:55:07.015Z,14.10
2017-03-28T07:56:08.440Z,14.17
2017-03-28T07:57:09.873Z,14.35
2017-03-28T07:58:11.325Z,14.32
2017-03-28T07:59:12.852Z,14.34
2017-03-28T08:00:14.281Z,14.34
2017-03-28T08:01:15.710Z,14.53
2017-03-28T08:02:17.199Z,14.57
2017-03-28T08:03:18.636Z,14.54
2017-03-28T08:04:20.064Z,14.61
2017-03-28T08:05:21.505Z,14.60
2017-03-28T08:06:22.944Z,14.80
2017-03-28T08:07:24.369Z,14.83
2017-03-28T08:08:25.808Z,14.90
2017-03-28T08:09:27.244Z,14.88
2017-03-28T08:10:28.685Z,14.91
2017-03-28T08:11:30.118Z,14.88
2017-03-28T08:12:31.554Z,15.06
2017-03-28T08:13:32.999Z,15.08
2017-03-28T08:14:34.434Z,15.24
2017-03-28T08:15:35.877Z,15.24
2017-03-28T08:16:37.314Z,15.31
2017-03-28T08:17:38.872Z,15.38
2017-03-28T08:18:40.311Z,15.57
2017-03-28T08:19:41.750Z,15.39
2017-03-28T08:20:43.192Z,15.57
2017-03-28T08:21:44.627Z,15.57
2017-03-28T08:22:46.052Z,15.49
2017-03-28T08:23:47.489Z,15.59
2017-03-28T08:24:48.924Z,15.54
2017-03-28T08:25:50.357Z,15.41
2017-03-28T08:26:51.792Z,15.56
2017-03-28T08:27:53.242Z,15.56
2017-03-28T08:28:54.696Z,15.76
2017-03-28T08:29:56.131Z,15.74
2017-03-28T08:30:57.564Z,15.70
2017-03-28T08:31:59.002Z,15.70
2017-03-28T08:33:00.436Z,15.76
2017-03-28T08:34:01.867Z,15.76
2017-03-28T08:35:04.015Z,15.81
2017-03-28T08:36:05.458Z,15.70
2017-03-28T08:37:06.893Z,15.64
2017-03-28T08:38:08.348Z,15.72
2017-03-28T08:39:09.789Z,15.97
2017-03-28T08:40:11.224Z,15.94
2017-03-28T08:41:12.657Z,16.00
2017-03-28T08:42:14.096Z,16.00
2017-03-28T08:43:15.537Z,16.04
2017-03-28T08:44:16.974Z,16.01
2017-03-28T08:45:18.432Z,15.97
2017-03-28T08:46:19.841Z,16.00
2017-03-28T08:47:21.279Z,16.07
2017-03-28T08:48:22.712Z,16.27
2017-03-28T08:49:24.154Z,16.33
2017-03-28T08:50:25.601Z,16.30
2017-03-28T08:51:27.041Z,16.33
2017-03-28T08:52:28.473Z,16.50
2017-03-28T08:53:29.904Z,16.50
2017-03-28T08:54:31.339Z,16.45
2017-03-28T08:55:32.788Z,16.45
2017-03-28T08:56:34.219Z,16.53
2017-03-28T08:57:35.655Z,16.44
2017-03-28T08:58:37.093Z,16.52
2017-03-28T08:59:38.526Z,16.50
2017-03-28T09:00:39.962Z,16.50
2017-03-28T09:01:41.393Z,16.53
2017-03-28T09:02:42.825Z,16.58
2017-03-28T09:03:44.256Z,16.81
2017-03-28T09:04:45.698Z,16.70
2017-03-28T09:05:47.127Z,16.67
2017-03-28T09:06:48.560Z,16.75
2017-03-28T09:07:49.997Z,16.48
2017-03-28T09:08:51.442Z,16.67
2017-03-28T09:09:52.874Z,16.83
2017-03-28T09:10:54.308Z,16.93
2017-03-28T09:11:55.743Z,17.07
2017-03-28T09:12:57.179Z,17.07
2017-03-28T09:13:58.619Z,17.32
2017-03-28T09:15:00.059Z,17.23
2017-03-28T09:16:01.495Z,17.25
2017-03-28T09:17:02.925Z,17.38
2017-03-28T09:18:04.362Z,17.17
2017-03-28T09:19:05.793Z,17.29
2017-03-28T09:20:07.230Z,17.48
2017-03-28T09:21:08.667Z,17.48
2017-03-28T09:22:10.101Z,17.33
2017-03-28T09:23:11.542Z,17.26
2017-03-28T09:24:12.987Z,17.33
2017-03-28T09:25:14.409Z,17.41
2017-03-28T09:26:15.843Z,17.53
2017-03-28T09:27:17.295Z,17.43
2017-03-28T09:28:18.734Z,17.23
2017-03-28T09:29:20.171Z,17.26
2017-03-28T09:30:21.607Z,17.44
2017-03-28T09:31:23.044Z,17.51
2017-03-28T09:32:24.477Z,17.22
2017-03-28T09:33:25.916Z,17.35
2017-03-28T09:34:27.351Z,17.43
2017-03-28T09:35:28.785Z,17.33
2017-03-28T09:36:30.228Z,17.36
2017-03-28T09:37:31.659Z,17.43
2017-03-28T09:38:33.096Z,17.22
2017-03-28T09:39:34.542Z,17.35
2017-03-28T09:40:35.977Z,17.55
2017-03-28T09:41:37.419Z,17.50
2017-03-28T09:42:38.850Z,17.63
2017-03-28T09:43:40.303Z,17.82
2017-03-28T09:44:41.734Z,17.78
2017-03-28T09:45:43.168Z,17.71
2017-03-28T09:46:44.605Z,17.71
2017-03-28T09:47:46.039Z,17.54
2017-03-28T09:48:47.480Z,17.69
2017-03-28T09:49:48.916Z,17.82
2017-03-28T09:50:50.364Z,17.74
2017-03-28T09:51:51.801Z,17.78
2017-03-28T09:52:55.425Z,17.81
2017-03-28T09:53:56.858Z,17.73
2017-03-28T09:54:58.301Z,17.85
2017-03-28T09:55:59.733Z,18.06
2017-03-28T09:57:01.173Z,18.13
2017-03-28T09:58:02.611Z,18.18
2017-03-28T09:59:04.045Z,18.24
2017-03-28T10:00:05.496Z,18.10
2017-03-28T10:01:06.933Z,18.31
2017-03-28T10:02:08.372Z,18.39
2017-03-28T10:03:09.805Z,18.17
2017-03-28T10:04:11.243Z,18.19
2017-03-28T10:05:12.678Z,18.34
2017-03-28T10:06:14.112Z,18.27
2017-03-28T10:07:15.548Z,18.29
2017-03-28T10:08:17.918Z,18.49
2017-03-28T10:09:19.348Z,18.34
2017-03-28T10:10:20.788Z,18.74
2017-03-28T10:11:22.974Z,18.52
2017-03-28T10:12:24.405Z,18.47
2017-03-28T10:13:25.845Z,18.65
2017-03-28T10:14:27.286Z,18.70
2017-03-28T10:15:28.777Z,18.77
2017-03-28T10:16:30.216Z,18.72
2017-03-28T10:17:31.659Z,18.80
2017-03-28T10:18:33.186Z,18.65
2017-03-28T10:19:34.629Z,18.58
2017-03-28T10:20:36.068Z,18.58
2017-03-28T10:21:37.515Z,18.61
2017-03-28T10:22:38.952Z,18.73
2017-03-28T10:23:40.382Z,18.87
2017-03-28T10:24:41.826Z,19.13
2017-03-28T10:25:43.261Z,18.77
2017-03-28T10:26:44.693Z,18.91
2017-03-28T10:27:46.141Z,18.90
2017-03-28T10:28:47.575Z,18.99
2017-03-28T10:29:49.632Z,19.11
2017-03-28T10:30:51.084Z,19.15
2017-03-28T10:31:52.519Z,19.10
2017-03-28T10:32:53.966Z,19.32
2017-03-28T10:33:55.413Z,19.36
2017-03-28T10:34:56.855Z,19.42
2017-03-28T10:35:58.307Z,19.18
2017-03-28T10:36:59.750Z,19.46
2017-03-28T10:38:01.191Z,19.32
2017-03-28T10:39:02.632Z,19.47
2017-03-28T10:40:04.080Z,19.86
2017-03-28T10:41:05.526Z,19.86
2017-03-28T10:42:06.953Z,19.86
2017-03-28T10:43:08.389Z,19.65
2017-03-28T10:44:09.825Z,19.66
2017-03-28T10:45:11.267Z,19.60
2017-03-28T10:46:12.768Z,19.68
2017-03-28T10:47:14.205Z,19.90
2017-03-28T10:48:15.641Z,19.84
2017-03-28T10:49:17.075Z,20.08
2017-03-28T10:50:18.527Z,20.20
2017-03-28T10:51:19.958Z,20.34
2017-03-28T10:52:21.396Z,20.24
2017-03-28T10:53:22.847Z,20.50
2017-03-28T10:54:24.291Z,20.50
2017-03-28T10:55:25.720Z,20.43
2017-03-28T10:56:27.162Z,20.03
2017-03-28T10:57:28.602Z,20.34
2017-03-28T10:58:30.041Z,20.42
2017-03-28T10:59:31.473Z,20.58
2017-03-28T11:00:32.915Z,20.50
2017-03-28T11:01:34.361Z,20.56
2017-03-28T11:02:35.798Z,20.30
2017-03-28T11:03:37.240Z,20.53
2017-03-28T11:04:38.676Z,20.65
2017-03-28T11:05:40.113Z,20.59
2017-03-28T11:06:41.557Z,20.58
2017-03-28T11:07:42.995Z,20.66
2017-03-28T11:08:44.440Z,20.65
2017-03-28T11:09:45.883Z,20.87
2017-03-28T11:10:47.313Z,20.74
2017-03-28T11:11:48.757Z,21.04
2017-03-28T11:12:50.198Z,20.98
2017-03-28T11:13:51.643Z,20.86
2017-03-28T11:14:53.083Z,20.74
2017-03-28T11:15:54.520Z,20.79
2017-03-28T11:16:55.956Z,20.72
2017-03-28T11:17:57.393Z,20.69
2017-03-28T11:18:58.838Z,20.66
2017-03-28T11:20:00.272Z,20.81
2017-03-28T11:21:01.716Z,21.08
2017-03-28T11:22:03.156Z,21.34
2017-03-28T11:23:04.597Z,21.17
2017-03-28T11:24:06.043Z,21.50
2017-03-28T11:25:07.483Z,21.57
2017-03-28T11:26:08.920Z,21.36
2017-03-28T11:27:10.357Z,21.21
2017-03-28T11:28:11.796Z,21.17
2017-03-28T11:29:13.247Z,21.16
2017-03-28T11:30:14.691Z,21.08
2017-03-28T11:31:16.134Z,21.27
2017-03-28T11:32:17.569Z,21.20
2017-03-28T11:33:19.004Z,21.26
2017-03-28T11:34:20.445Z,21.35
2017-03-28T11:35:21.887Z,21.26
2017-03-28T11:36:23.332Z,21.39
2017-03-28T11:37:24.773Z,21.44
2017-03-28T11:38:26.224Z,21.36
2017-03-28T11:39:27.669Z,21.48
2017-03-28T11:40:29.109Z,21.26
2017-03-28T11:41:30.545Z,21.32
2017-03-28T11:42:31.983Z,21.35
2017-03-28T11:43:34.373Z,21.36
2017-03-28T11:44:35.821Z,21.27
2017-03-28T11:45:37.272Z,21.27
2017-03-28T11:46:38.718Z,21.51
2017-03-28T11:47:40.154Z,21.81
2017-03-28T11:48:41.596Z,21.81
2017-03-28T11:49:43.034Z,21.82
2017-03-28T11:50:44.478Z,21.85
2017-03-28T11:51:45.927Z,21.78
2017-03-28T11:52:47.370Z,21.69
2017-03-28T11:53:48.808Z,21.66
2017-03-28T11:54:50.253Z,21.59
2017-03-28T11:55:51.704Z,21.64
2017-03-28T11:56:53.141Z,21.59
2017-03-28T11:57:54.582Z,22.10
2017-03-28T11:58:56.030Z,22.27
2017-03-28T11:59:57.467Z,22.12
2017-03-28T12:00:58.908Z,21.82
2017-03-28T12:02:00.344Z,22.07
2017-03-28T12:03:01.782Z,22.23
2017-03-28T12:04:03.247Z,22.20
2017-03-28T12:05:04.674Z,22.14
2017-03-28T12:06:06.107Z,21.82
2017-03-28T12:07:07.555Z,21.91
2017-03-28T12:08:08.995Z,22.28
2017-03-28T12:09:10.450Z,22.16
2017-03-28T12:10:11.887Z,22.35
2017-03-28T12:11:13.329Z,22.47
2017-03-28T12:12:14.764Z,22.19
2017-03-28T12:13:16.207Z,22.38
2017-03-28T12:14:17.650Z,22.32
2017-03-28T12:15:19.106Z,22.20
2017-03-28T12:16:20.549Z,21.82
2017-03-28T12:17:21.994Z,21.59
2017-03-28T12:18:23.437Z,21.27
2017-03-28T12:19:24.882Z,21.61
2017-03-28T12:20:26.322Z,21.94
2017-03-28T12:21:27.778Z,21.92
2017-03-28T12:22:29.217Z,21.83
2017-03-28T12:23:30.680Z,22.09
2017-03-28T12:24:32.116Z,22.12
2017-03-28T12:25:33.559Z,22.17
2017-03-28T12:26:35.004Z,22.22
2017-03-28T12:27:36.449Z,22.32
2017-03-28T12:28:37.895Z,22.12
2017-03-28T12:29:39.335Z,21.75
2017-03-28T12:30:40.788Z,21.59
2017-03-28T12:31:42.257Z,21.81
2017-03-28T12:32:43.664Z,21.66
2017-03-28T12:33:45.101Z,21.67
2017-03-28T12:34:46.537Z,21.75
2017-03-28T12:35:47.978Z,21.60
2017-03-28T12:36:49.462Z,21.78
2017-03-28T12:37:50.876Z,22.06
2017-03-28T12:38:52.312Z,21.95
2017-03-28T12:39:53.757Z,21.72
2017-03-28T12:40:55.199Z,21.57
2017-03-28T12:41:56.634Z,21.60
2017-03-28T12:42:58.086Z,21.95
2017-03-28T12:44:00.367Z,22.22
2017-03-28T12:45:01.817Z,22.27
2017-03-28T12:46:03.261Z,22.44
2017-03-28T12:47:04.707Z,22.49
2017-03-28T12:48:06.144Z,22.65
2017-03-28T12:49:07.579Z,22.62
2017-03-28T12:50:09.024Z,22.54
2017-03-28T12:51:11.024Z,22.47
2017-03-28T12:52:12.479Z,22.84
2017-03-28T12:53:13.926Z,22.87
2017-03-28T12:54:15.382Z,22.97
2017-03-28T12:55:16.820Z,22.54
2017-03-28T12:56:18.265Z,22.43
2017-03-28T12:57:19.707Z,22.43
2017-03-28T12:58:21.145Z,22.31
2017-03-28T12:59:22.586Z,22.64
2017-03-28T13:00:24.028Z,22.60
2017-03-28T13:01:25.469Z,22.80
2017-03-28T13:02:26.902Z,22.47
2017-03-28T13:03:28.344Z,22.68
2017-03-28T13:04:29.782Z,22.27
2017-03-28T13:05:31.227Z,22.23
2017-03-28T13:06:32.663Z,22.28
2017-03-28T13:07:34.105Z,22.29
2017-03-28T13:08:35.563Z,22.31
2017-03-28T13:09:36.996Z,22.20
2017-03-28T13:10:38.450Z,22.28
2017-03-28T13:11:39.884Z,22.62
2017-03-28T13:12:41.323Z,22.38
2017-03-28T13:13:42.776Z,22.64
2017-03-28T13:14:44.218Z,22.35
2017-03-28T13:15:45.654Z,22.54
2017-03-28T13:16:47.095Z,22.80
2017-03-28T13:17:48.536Z,23.09
2017-03-28T13:18:49.984Z,23.08
2017-03-28T13:19:51.431Z,23.43
2017-03-28T13:20:52.896Z,24.01
2017-03-28T13:21:54.332Z,24.44
2017-03-28T13:22:55.779Z,25.89
2017-03-28T13:23:57.225Z,28.85
2017-03-28T13:24:58.667Z,30.74